Time;durP1;ratioP1;P1;durP2;ratioP2;P2;SDS_P1;SDS_P2;PMS_P1;PMS_P2;Temp;Humidity;BMP_temperature;BMP_pressure;BME280_temperature;BME280_humidity;BME280_pressure;Samples;Min_cycle;Max_cycle;Signal;HPM_P1;HPM_P2
2023/10/04 00:00:59;;;;;;;;;;;;;;;14.67;78.06;101626.34;4097922;29;20409;-74
2023/10/04 00:03:02;;;;;;;;;;;;;;;14.68;77.38;101619.00;4115832;28;20415;-74
2023/10/04 00:05:03;;;;;;;;;;;;;;;14.67;77.24;101617.31;4114224;28;19965;-75
2023/10/04 00:07:06;;;;;;;;;;;;;;;14.66;77.26;101621.09;4122908;28;19965;-75
2023/10/04 00:09:10;;;;;;;;;;;;;;;14.68;77.01;101627.16;4100295;28;19965;-73
2023/10/04 00:11:14;;;;;;;;;;;;;;;14.68;77.37;101635.34;4115487;28;19969;-75
2023/10/04 00:13:17;;;;;;;;;;;;;;;14.64;77.45;101632.13;4115169;28;19953;-74
2023/10/04 00:15:20;;;;;;;;;;;;;;;14.65;77.60;101636.53;4112571;28;19969;-73
2023/10/04 00:17:22;;;;;;;;;;;;;;;14.67;76.85;101633.63;4111047;28;19930;-74
2023/10/04 00:19:24;;;;;;;;;;;;;;;14.69;76.94;101642.47;4112664;28;20415;-72
2023/10/04 00:21:26;;;;;;;;;;;;;;;14.69;77.06;101637.88;4112547;28;19977;-75
2023/10/04 00:23:28;;;;;;;;;;;;;;;14.70;76.78;101638.69;4112801;28;20619;-74
2023/10/04 00:25:33;;;;;;;;;;;;;;;14.69;76.84;101651.47;4112498;28;19973;-75
2023/10/04 00:27:34;;;;;;;;;;;;;;;14.67;77.14;101650.81;4115186;28;19961;-73
2023/10/04 00:29:36;;;;;;;;;;;;;;;14.68;76.95;101648.94;4096638;28;19963;-74
2023/10/04 00:31:38;;;;;;;;;;;;;;;14.67;76.54;101650.81;4087111;29;19966;-74
2023/10/04 00:33:40;;;;;;;;;;;;;;;14.65;76.66;101646.56;4114573;28;19969;-75
2023/10/04 00:35:41;;;;;;;;;;;;;;;14.60;76.99;101677.03;4081854;29;19966;-75
2023/10/04 00:37:43;;;;;;;;;;;;;;;14.60;76.56;101663.41;4127419;28;19972;-72
2023/10/04 00:39:44;;;;;;;;;;;;;;;14.61;76.68;101651.53;4112941;28;20004;-75
2023/10/04 00:41:50;;;;;;;;;;;;;;;14.56;76.37;101659.34;4114018;28;19966;-75
2023/10/04 00:43:53;;;;;;;;;;;;;;;14.53;76.87;101655.13;4111610;28;19950;-72
2023/10/04 00:45:55;;;;;;;;;;;;;;;14.50;76.81;101666.34;4110166;28;19969;-75
2023/10/04 00:47:57;;;;;;;;;;;;;;;14.48;76.89;101668.41;4096836;28;19935;-75
2023/10/04 00:50:01;;;;;;;;;;;;;;;14.43;76.92;101654.50;4113913;28;19969;-74
2023/10/04 00:52:08;;;;;;;;;;;;;;;14.42;77.04;101672.69;4094012;28;20017;-74
2023/10/04 00:54:11;;;;;;;;;;;;;;;14.45;76.95;101662.47;4107758;28;20017;-74
2023/10/04 00:56:12;;;;;;;;;;;;;;;14.45;77.47;101667.91;4105125;28;20025;-75
2023/10/04 00:58:17;;;;;;;;;;;;;;;14.42;77.27;101669.97;4106597;28;20020;-74
2023/10/04 01:00:20;;;;;;;;;;;;;;;14.40;77.63;101666.59;4107216;28;19954;-74
2023/10/04 01:02:22;;;;;;;;;;;;;;;14.38;77.70;101665.91;4109478;28;20001;-75
2023/10/04 01:04:25;;;;;;;;;;;;;;;14.34;77.97;101666.44;4112147;28;19954;-75
2023/10/04 01:06:27;;;;;;;;;;;;;;;14.33;78.07;101662.06;4110882;28;19969;-75
2023/10/04 01:08:29;;;;;;;;;;;;;;;14.31;78.39;101666.81;4110581;28;19969;-74
2023/10/04 01:10:33;;;;;;;;;;;;;;;14.31;78.44;101662.25;4109070;28;20000;-75
2023/10/04 01:12:36;;;;;;;;;;;;;;;14.29;78.40;101663.44;4107700;28;20013;-75
2023/10/04 01:14:39;;;;;;;;;;;;;;;14.28;78.35;101664.44;4094081;28;19954;-74
2023/10/04 01:16:42;;;;;;;;;;;;;;;14.28;78.38;101664.44;4110534;28;19960;-75
2023/10/04 01:18:45;;;;;;;;;;;;;;;14.27;78.26;101666.31;4112351;28;19976;-74
2023/10/04 01:20:47;;;;;;;;;;;;;;;14.20;78.09;101660.78;4111224;28;19993;-75
2023/10/04 01:22:50;;;;;;;;;;;;;;;14.16;78.73;101662.13;4092436;28;20100;-74
2023/10/04 01:24:53;;;;;;;;;;;;;;;14.14;78.63;101661.47;4109303;28;19965;-72
2023/10/04 01:26:56;;;;;;;;;;;;;;;14.14;78.58;101661.47;4110919;28;19973;-73
2023/10/04 01:29:02;;;;;;;;;;;;;;;14.10;78.95;101665.56;4093097;28;19961;-75
2023/10/04 01:31:05;;;;;;;;;;;;;;;14.06;78.83;101669.69;4110572;28;19969;-74
2023/10/04 01:33:10;;;;;;;;;;;;;;;14.06;78.76;101665.09;4109851;28;19968;-75
2023/10/04 01:35:12;;;;;;;;;;;;;;;14.04;78.83;101667.13;4108259;28;20022;-74
2023/10/04 01:37:15;;;;;;;;;;;;;;;14.03;78.71;101670.88;4108937;28;19961;-74
2023/10/04 01:39:20;;;;;;;;;;;;;;;14.04;78.53;101656.28;4108152;28;20361;-73
2023/10/04 01:41:23;;;;;;;;;;;;;;;13.99;78.74;101665.97;4107410;28;19961;-74
2023/10/04 01:43:25;;;;;;;;;;;;;;;13.97;78.54;101655.28;4092200;28;19984;-73
2023/10/04 01:45:27;;;;;;;;;;;;;;;13.92;78.76;101657.69;4106257;28;19970;-73
2023/10/04 01:47:30;;;;;;;;;;;;;;;13.91;78.74;101653.28;4091257;28;19972;-74
2023/10/04 01:49:32;;;;;;;;;;;;;;;13.93;78.94;101650.38;4107375;28;20034;-75
2023/10/04 01:51:35;;;;;;;;;;;;;;;13.94;78.82;101654.78;4109116;28;19958;-75
2023/10/04 01:53:37;;;;;;;;;;;;;;;13.85;79.18;101656.69;4091973;28;19954;-74
2023/10/04 01:55:41;;;;;;;;;;;;;;;13.81;79.01;101653.50;4121974;28;20466;-75
2023/10/04 01:57:43;;;;;;;;;;;;;;;13.78;79.42;101653.84;4106979;28;20020;-75
2023/10/04 01:59:45;;;;;;;;;;;;;;;13.77;79.23;101652.13;4107224;28;20584;-75
2023/10/04 02:01:47;;;;;;;;;;;;;;;13.70;79.47;101653.88;4105479;28;20021;-74
2023/10/04 02:03:48;;;;;;;;;;;;;;;13.67;79.62;101649.63;4108796;28;20075;-70
2023/10/04 02:05:56;;;;;;;;;;;;;;;13.66;79.57;101652.53;4105552;28;19964;-74
2023/10/04 02:07:58;;;;;;;;;;;;;;;13.63;80.10;101661.00;4106791;28;20029;-75
2023/10/04 02:09:59;;;;;;;;;;;;;;;13.59;79.80;101665.09;4108132;28;19954;-72
2023/10/04 02:12:03;;;;;;;;;;;;;;;13.60;80.02;101653.22;4106566;28;19954;-75
2023/10/04 02:14:05;;;;;;;;;;;;;;;13.59;79.88;101659.66;4107184;28;19989;-74
2023/10/04 02:16:08;;;;;;;;;;;;;;;13.58;80.09;101652.56;4107310;28;20017;-75
2023/10/04 02:18:11;;;;;;;;;;;;;;;13.58;79.90;101660.69;4122992;28;19953;-74
2023/10/04 02:20:14;;;;;;;;;;;;;;;13.60;80.17;101653.22;4090432;29;19995;-75
2023/10/04 02:22:18;;;;;;;;;;;;;;;13.58;79.79;101645.25;4105922;28;20452;-74
2023/10/04 02:24:20;;;;;;;;;;;;;;;13.55;80.03;101655.63;4090075;28;20025;-75
2023/10/04 02:26:22;;;;;;;;;;;;;;;13.57;79.78;101659.84;4106018;28;20018;-73
2023/10/04 02:28:26;;;;;;;;;;;;;;;13.59;79.73;101657.81;4088543;28;20009;-75
2023/10/04 02:30:28;;;;;;;;;;;;;;;13.57;79.92;101662.53;4105000;28;20053;-74
2023/10/04 02:32:31;;;;;;;;;;;;;;;13.54;80.18;101660.19;4104701;28;21423;-74
2023/10/04 02:34:34;;;;;;;;;;;;;;;13.57;79.99;101657.13;4105299;28;20021;-73
2023/10/04 02:36:37;;;;;;;;;;;;;;;13.55;79.95;101658.34;4121649;28;20035;-74
2023/10/04 02:38:39;;;;;;;;;;;;;;;13.55;79.94;101655.63;4107706;28;20357;-74
2023/10/04 02:40:41;;;;;;;;;;;;;;;13.49;80.54;101658.03;4106720;28;20016;-74
2023/10/04 02:42:44;;;;;;;;;;;;;;;13.51;80.30;101660.53;4109194;28;20457;-73
2023/10/04 02:44:48;;;;;;;;;;;;;;;13.52;80.23;101646.78;4109300;28;19976;-75
2023/10/04 02:46:52;;;;;;;;;;;;;;;13.54;80.41;101659.34;4116225;28;20016;-73
2023/10/04 02:48:54;;;;;;;;;;;;;;;13.54;80.11;101651.19;4109025;28;20041;-71
2023/10/04 02:50:56;;;;;;;;;;;;;;;13.53;80.21;101647.66;4108304;28;19965;-72
2023/10/04 02:52:59;;;;;;;;;;;;;;;13.56;79.90;101652.72;4091449;28;20456;-71
2023/10/04 02:55:03;;;;;;;;;;;;;;;13.57;79.72;101656.28;4107410;28;20021;-73
2023/10/04 02:57:07;;;;;;;;;;;;;;;13.57;79.54;101661.72;4107924;28;20028;-74
2023/10/04 02:59:09;;;;;;;;;;;;;;;13.51;79.93;101661.41;4112648;28;20017;-70
2023/10/04 03:01:22;;;;;;;;;;;;;;;13.48;79.93;101667.16;4107678;28;20024;-70
2023/10/04 03:03:25;;;;;;;;;;;;;;;13.50;79.82;101656.97;4092033;28;20500;-71
2023/10/04 03:05:32;;;;;;;;;;;;;;;13.47;80.00;101656.50;4091760;28;20025;-71
2023/10/04 03:07:37;;;;;;;;;;;;;;;13.46;80.08;101660.22;4106581;28;19963;-70
2023/10/04 03:09:41;;;;;;;;;;;;;;;13.47;79.89;101661.91;4106327;28;20392;-71
2023/10/04 03:11:43;;;;;;;;;;;;;;;13.45;79.94;101670.22;4107683;28;20029;-71
2023/10/04 03:13:47;;;;;;;;;;;;;;;13.42;79.88;101659.72;4090168;28;20024;-70
2023/10/04 03:15:50;;;;;;;;;;;;;;;13.44;80.01;101657.66;4107490;28;20026;-74
2023/10/04 03:17:54;;;;;;;;;;;;;;;13.44;80.07;101656.84;4106738;28;20053;-70
2023/10/04 03:19:55;;;;;;;;;;;;;;;13.41;79.89;101662.59;4122455;28;20028;-70
2023/10/04 03:21:57;;;;;;;;;;;;;;;13.40;80.14;101659.06;4107417;28;20424;-70
2023/10/04 03:24:00;;;;;;;;;;;;;;;13.37;80.09;101659.41;4106839;28;20013;-70
2023/10/04 03:26:03;;;;;;;;;;;;;;;13.34;80.63;101660.59;4121406;28;20480;-70
2023/10/04 03:28:05;;;;;;;;;;;;;;;13.37;80.24;101659.41;4106694;28;20025;-70
2023/10/04 03:30:09;;;;;;;;;;;;;;;13.36;80.36;101667.72;4106348;28;20025;-69
2023/10/04 03:32:15;;;;;;;;;;;;;;;13.32;80.14;101661.72;4091456;28;20425;-72
2023/10/04 03:34:22;;;;;;;;;;;;;;;13.33;80.13;101677.03;4106646;28;20030;-71
2023/10/04 03:36:25;;;;;;;;;;;;;;;13.33;80.07;101677.88;4107918;28;20080;-74
2023/10/04 03:38:38;;;;;;;;;;;;;;;13.34;80.03;101673.31;4105919;28;20042;-74
2023/10/04 03:40:41;;;;;;;;;;;;;;;13.32;79.85;101668.03;4106003;28;20037;-71
2023/10/04 03:42:47;;;;;;;;;;;;;;;13.33;80.23;101687.88;4121676;28;20594;-70
2023/10/04 03:44:49;;;;;;;;;;;;;;;13.30;80.10;101677.34;4105245;28;20041;-71
2023/10/04 03:46:53;;;;;;;;;;;;;;;13.29;79.83;101676.50;4106112;28;20009;-73
2023/10/04 03:48:58;;;;;;;;;;;;;;;13.31;79.81;101690.75;4091373;28;19931;-71
2023/10/04 03:51:04;;;;;;;;;;;;;;;13.25;79.66;101683.28;4106799;28;20013;-71
2023/10/04 03:53:06;;;;;;;;;;;;;;;13.23;79.84;101682.63;4107341;28;20033;-72
2023/10/04 03:55:10;;;;;;;;;;;;;;;13.19;80.05;101683.97;4105880;28;20472;-72
2023/10/04 03:57:12;;;;;;;;;;;;;;;13.19;80.05;101692.09;4106226;28;20017;-72
2023/10/04 03:59:16;;;;;;;;;;;;;;;13.16;79.93;101697.88;4106108;28;20021;-73
2023/10/04 04:01:19;;;;;;;;;;;;;;;13.15;80.18;101691.63;4105967;28;20354;-73
2023/10/04 04:03:21;;;;;;;;;;;;;;;13.14;80.14;101689.06;4121367;28;20024;-72
2023/10/04 04:05:23;;;;;;;;;;;;;;;13.10;80.06;101691.28;4107266;28;20017;-72
2023/10/04 04:07:26;;;;;;;;;;;;;;;13.08;80.25;101689.75;4107137;28;20013;-72
2023/10/04 04:09:28;;;;;;;;;;;;;;;13.10;80.09;101694.00;4105914;28;20049;-72
2023/10/04 04:11:31;;;;;;;;;;;;;;;13.09;80.22;101694.16;4106626;28;20016;-73
2023/10/04 04:13:38;;;;;;;;;;;;;;;13.06;80.48;101686.38;4106100;28;20016;-72
2023/10/04 04:15:40;;;;;;;;;;;;;;;13.03;80.50;101703.81;4105966;28;20018;-72
2023/10/04 04:17:45;;;;;;;;;;;;;;;13.06;80.67;101699.94;4105671;28;20034;-72
2023/10/04 04:19:47;;;;;;;;;;;;;;;13.06;80.41;101692.63;4106018;28;20033;-72
2023/10/04 04:21:50;;;;;;;;;;;;;;;13.05;80.24;101695.50;4106496;28;20021;-72
2023/10/04 04:23:53;;;;;;;;;;;;;;;13.02;80.36;101687.72;4107241;28;20371;-72
2023/10/04 04:25:56;;;;;;;;;;;;;;;13.03;80.50;101689.41;4121197;28;20492;-72
2023/10/04 04:27:58;;;;;;;;;;;;;;;13.02;80.38;101687.72;4106477;28;20021;-72
2023/10/04 04:30:03;;;;;;;;;;;;;;;13.02;80.28;101696.69;4103776;28;20031;-72
2023/10/04 04:32:06;;;;;;;;;;;;;;;13.01;80.36;101688.72;4089117;28;20017;-72
2023/10/04 04:34:13;;;;;;;;;;;;;;;13.01;80.40;101711.28;4089825;28;20025;-72
2023/10/04 04:36:20;;;;;;;;;;;;;;;13.00;80.59;101692.47;4105235;28;20021;-72
2023/10/04 04:38:24;;;;;;;;;;;;;;;12.96;80.51;101706.38;4104785;28;20029;-72
2023/10/04 04:40:30;;;;;;;;;;;;;;;12.96;80.58;101717.22;4104579;28;20017;-72
2023/10/04 04:42:35;;;;;;;;;;;;;;;12.97;80.29;101708.03;4088389;28;20045;-72
2023/10/04 04:44:44;;;;;;;;;;;;;;;12.97;80.39;101694.47;4104831;28;20021;-72
2023/10/04 04:46:47;;;;;;;;;;;;;;;12.95;80.65;101712.78;4105061;28;20472;-72
2023/10/04 04:48:51;;;;;;;;;;;;;;;12.99;80.24;101699.75;4104911;28;20013;-72
2023/10/04 04:50:54;;;;;;;;;;;;;;;12.97;80.39;101713.47;4104875;28;19954;-71
2023/10/04 04:52:57;;;;;;;;;;;;;;;12.99;80.53;101697.03;4104978;28;20061;-72
2023/10/04 04:54:59;;;;;;;;;;;;;;;12.95;80.49;101699.25;4105103;28;20020;-71
2023/10/04 04:57:05;;;;;;;;;;;;;;;12.96;80.27;101703.66;4105609;28;20468;-72
2023/10/04 04:59:09;;;;;;;;;;;;;;;12.95;80.56;101691.09;4105619;28;20017;-72
2023/10/04 05:01:12;;;;;;;;;;;;;;;12.93;80.55;101686.84;4087775;28;20025;-71
2023/10/04 05:03:14;;;;;;;;;;;;;;;12.89;80.60;101694.50;4089641;28;20013;-71
2023/10/04 05:05:16;;;;;;;;;;;;;;;12.89;80.61;101699.91;4105545;28;20009;-72
2023/10/04 05:07:18;;;;;;;;;;;;;;;12.90;80.69;101698.91;4106427;28;20546;-72
2023/10/04 05:09:19;;;;;;;;;;;;;;;12.90;80.63;101700.75;4106605;28;20388;-72
2023/10/04 05:11:21;;;;;;;;;;;;;;;12.90;80.43;101706.16;4105314;28;20485;-71
2023/10/04 05:13:24;;;;;;;;;;;;;;;12.89;80.68;101697.19;4105848;28;20009;-71
2023/10/04 05:15:32;;;;;;;;;;;;;;;12.88;81.54;101703.63;4104831;28;20026;-74
2023/10/04 05:17:34;;;;;;;;;;;;;;;12.82;81.44;101709.75;4105918;28;20021;-71
2023/10/04 05:19:36;;;;;;;;;;;;;;;12.78;81.38;101706.50;4105883;28;20602;-73
2023/10/04 05:21:38;;;;;;;;;;;;;;;12.79;82.10;101723.66;4105879;28;20014;-74
2023/10/04 05:23:41;;;;;;;;;;;;;;;12.73;82.02;101717.03;4105460;28;20033;-73
2023/10/04 05:25:43;;;;;;;;;;;;;;;12.73;81.70;101714.31;4105447;28;20025;-73
2023/10/04 05:27:46;;;;;;;;;;;;;;;12.75;81.48;101714.16;4106137;28;20472;-72
2023/10/04 05:29:50;;;;;;;;;;;;;;;12.76;81.57;101721.28;4104047;28;20021;-72
2023/10/04 05:31:52;;;;;;;;;;;;;;;12.79;81.24;101721.78;4105248;28;20058;-72
2023/10/04 05:33:55;;;;;;;;;;;;;;;12.82;81.20;101712.47;4105019;28;20037;-72
2023/10/04 05:36:00;;;;;;;;;;;;;;;12.86;81.17;101716.53;4089515;28;20021;-71
2023/10/04 05:38:03;;;;;;;;;;;;;;;12.88;80.91;101727.19;4104169;28;20127;-72
2023/10/04 05:40:16;;;;;;;;;;;;;;;12.89;80.75;101727.03;4105587;28;20009;-72
2023/10/04 05:42:18;;;;;;;;;;;;;;;12.88;81.01;101724.47;4105588;28;20022;-72
2023/10/04 05:44:20;;;;;;;;;;;;;;;12.92;80.88;101723.97;4104876;28;20326;-72
2023/10/04 05:46:24;;;;;;;;;;;;;;;12.91;80.61;101730.41;4104986;28;20607;-72
2023/10/04 05:48:26;;;;;;;;;;;;;;;12.93;80.62;101728.41;4105276;28;20025;-71
2023/10/04 05:50:32;;;;;;;;;;;;;;;12.97;80.25;101726.19;4105694;28;20009;-72
2023/10/04 05:52:33;;;;;;;;;;;;;;;12.99;80.16;101729.56;4104803;28;19973;-72
2023/10/04 05:54:35;;;;;;;;;;;;;;;12.99;80.04;101740.41;4105972;28;20345;-72
2023/10/04 05:56:39;;;;;;;;;;;;;;;13.00;79.93;101734.00;4104397;28;20025;-70
2023/10/04 05:58:41;;;;;;;;;;;;;;;12.99;79.68;101751.25;4104954;28;20452;-72
2023/10/04 06:00:46;;;;;;;;;;;;;;;13.00;79.94;101746.72;4104872;28;20013;-72
2023/10/04 06:02:50;;;;;;;;;;;;;;;12.97;80.03;101748.72;4105364;28;20049;-72
2023/10/04 06:04:53;;;;;;;;;;;;;;;13.00;79.95;101741.28;4105816;28;20445;-72
2023/10/04 06:06:55;;;;;;;;;;;;;;;12.97;80.30;101756.00;4105513;28;20130;-72
2023/10/04 06:08:57;;;;;;;;;;;;;;;12.97;80.20;101756.00;4105419;28;20009;-71
2023/10/04 06:11:04;;;;;;;;;;;;;;;13.00;79.94;101749.41;4104106;28;20030;-71
2023/10/04 06:13:10;;;;;;;;;;;;;;;12.97;80.28;101754.13;4100232;28;19926;-72
2023/10/04 06:15:15;;;;;;;;;;;;;;;12.96;80.57;101755.19;4103024;28;20017;-72
2023/10/04 06:17:17;;;;;;;;;;;;;;;12.98;80.25;101769.41;4103841;28;20033;-72
2023/10/04 06:19:25;;;;;;;;;;;;;;;13.01;80.08;101762.81;4103813;28;20026;-72
2023/10/04 06:21:29;;;;;;;;;;;;;;;13.03;80.04;101762.66;4104106;28;20041;-71
2023/10/04 06:23:32;;;;;;;;;;;;;;;13.05;79.93;101764.16;4104826;28;20029;-71
2023/10/04 06:25:34;;;;;;;;;;;;;;;13.03;80.24;101771.63;4088481;28;20552;-73
2023/10/04 06:27:35;;;;;;;;;;;;;;;13.06;80.19;101778.56;4105492;28;20414;-72
2023/10/04 06:29:37;;;;;;;;;;;;;;;13.07;80.22;101773.00;4105624;28;19931;-72
2023/10/04 06:31:39;;;;;;;;;;;;;;;13.09;80.17;101784.50;4103873;28;20025;-72
2023/10/04 06:33:42;;;;;;;;;;;;;;;13.09;80.13;101775.53;4105358;28;20484;-72
2023/10/04 06:35:46;;;;;;;;;;;;;;;13.11;79.81;101787.06;4104904;28;20017;-73
2023/10/04 06:37:48;;;;;;;;;;;;;;;13.12;79.94;101788.75;4105660;28;20403;-73
2023/10/04 06:39:50;;;;;;;;;;;;;;;13.12;79.88;101792.31;4104724;28;20025;-73
2023/10/04 06:41:52;;;;;;;;;;;;;;;13.16;79.86;101788.25;4105429;28;20020;-73
2023/10/04 06:43:56;;;;;;;;;;;;;;;13.13;79.87;101795.84;4105005;28;20022;-72
2023/10/04 06:45:59;;;;;;;;;;;;;;;13.14;80.46;101794.84;4103751;28;20020;-73
2023/10/04 06:48:01;;;;;;;;;;;;;;;13.14;80.23;101806.53;4105597;28;20440;-73
2023/10/04 06:50:05;;;;;;;;;;;;;;;13.17;79.92;101816.22;4105234;28;20017;-72
2023/10/04 06:52:09;;;;;;;;;;;;;;;13.20;80.13;101815.88;4104834;28;20476;-72
2023/10/04 06:54:11;;;;;;;;;;;;;;;13.21;80.06;101808.59;4105935;28;19930;-72
2023/10/04 06:56:13;;;;;;;;;;;;;;;13.22;80.33;101813.00;4104844;28;19981;-72
2023/10/04 06:58:15;;;;;;;;;;;;;;;13.24;80.28;101821.81;4104208;28;20009;-72
2023/10/04 07:00:18;;;;;;;;;;;;;;;13.26;79.99;101826.06;4104029;28;20013;-72
2023/10/04 07:02:20;;;;;;;;;;;;;;;13.29;80.19;101816.72;4104384;28;20353;-72
2023/10/04 07:04:23;;;;;;;;;;;;;;;13.30;80.28;101830.13;4104879;28;20036;-72
2023/10/04 07:06:26;;;;;;;;;;;;;;;13.34;80.12;101822.53;4103522;28;20017;-72
2023/10/04 07:08:35;;;;;;;;;;;;;;;13.37;80.22;101829.47;4105517;28;20026;-72
2023/10/04 07:10:37;;;;;;;;;;;;;;;13.40;80.11;101830.00;4104466;28;20022;-72
2023/10/04 07:12:39;;;;;;;;;;;;;;;13.42;80.04;101830.69;4104561;28;20026;-72
2023/10/04 07:14:43;;;;;;;;;;;;;;;13.42;79.99;101833.38;4105408;28;20029;-72
2023/10/04 07:16:45;;;;;;;;;;;;;;;13.47;79.99;101841.03;4104398;28;20030;-72
2023/10/04 07:18:47;;;;;;;;;;;;;;;13.50;80.25;101848.84;4104511;28;20025;-72
2023/10/04 07:20:49;;;;;;;;;;;;;;;13.54;79.86;101836.59;4104963;28;20024;-72
2023/10/04 07:22:51;;;;;;;;;;;;;;;13.56;79.79;101837.28;4104793;28;20338;-72
2023/10/04 07:24:54;;;;;;;;;;;;;;;13.58;80.00;101840.69;4104851;28;20028;-72
2023/10/04 07:26:55;;;;;;;;;;;;;;;13.60;80.33;101852.22;4105102;28;20028;-72
2023/10/04 07:28:58;;;;;;;;;;;;;;;13.63;80.19;101849.16;4107635;28;20021;-72
2023/10/04 07:31:00;;;;;;;;;;;;;;;13.64;79.85;101848.16;4107285;28;20462;-72
2023/10/04 07:33:02;;;;;;;;;;;;;;;13.65;80.20;101851.69;4107600;28;20461;-72
2023/10/04 07:35:06;;;;;;;;;;;;;;;13.67;80.30;101849.69;4107458;28;20385;-72
2023/10/04 07:37:08;;;;;;;;;;;;;;;13.67;80.40;101853.22;4105789;28;20025;-73
2023/10/04 07:39:15;;;;;;;;;;;;;;;13.70;80.34;101861.03;4106872;28;20021;-72
2023/10/04 07:41:19;;;;;;;;;;;;;;;13.71;80.24;101856.44;4107203;28;20021;-72
2023/10/04 07:43:21;;;;;;;;;;;;;;;13.78;79.99;101867.50;4107534;28;20040;-72
2023/10/04 07:45:23;;;;;;;;;;;;;;;13.79;79.24;101856.47;4107643;28;20452;-72
2023/10/04 07:47:25;;;;;;;;;;;;;;;13.84;79.65;101872.22;4107443;28;20024;-72
2023/10/04 07:49:26;;;;;;;;;;;;;;;13.85;79.45;101866.63;4106652;28;20021;-72
2023/10/04 07:51:28;;;;;;;;;;;;;;;13.87;79.36;101856.44;4107754;28;20057;-73
2023/10/04 07:53:30;;;;;;;;;;;;;;;13.90;79.40;101846.25;4107769;28;20020;-72
2023/10/04 07:55:33;;;;;;;;;;;;;;;13.92;79.64;101852.34;4106940;28;20381;-72
2023/10/04 07:57:41;;;;;;;;;;;;;;;13.94;79.42;101870.19;4106243;28;19934;-73
2023/10/04 07:59:43;;;;;;;;;;;;;;;13.95;79.03;101874.59;4107008;28;20021;-72
2023/10/04 08:01:45;;;;;;;;;;;;;;;13.98;78.67;101870.69;4106035;28;20009;-71
2023/10/04 08:03:48;;;;;;;;;;;;;;;14.01;78.50;101856.75;4107215;28;20021;-73
2023/10/04 08:05:51;;;;;;;;;;;;;;;14.05;78.61;101856.25;4106893;28;20369;-73
2023/10/04 08:07:54;;;;;;;;;;;;;;;14.09;78.18;101856.75;4106787;28;20017;-73
2023/10/04 08:09:58;;;;;;;;;;;;;;;14.10;78.58;101855.72;4107392;28;20021;-73
2023/10/04 08:12:00;;;;;;;;;;;;;;;14.12;78.70;101859.13;4106314;28;19927;-73
2023/10/04 08:14:07;;;;;;;;;;;;;;;14.16;78.77;101863.19;4106757;28;20379;-72
2023/10/04 08:16:10;;;;;;;;;;;;;;;14.20;78.29;101869.09;4107314;28;20450;-73
2023/10/04 08:18:16;;;;;;;;;;;;;;;14.22;78.42;101875.22;4107029;28;20029;-72
2023/10/04 08:20:18;;;;;;;;;;;;;;;14.24;78.34;101870.47;4106401;28;20053;-72
2023/10/04 08:22:21;;;;;;;;;;;;;;;14.29;78.18;101878.94;4107018;28;20022;-71
2023/10/04 08:24:23;;;;;;;;;;;;;;;14.32;77.87;101881.31;4106510;28;20048;-72
2023/10/04 08:26:25;;;;;;;;;;;;;;;14.36;78.43;101881.81;4107159;28;20024;-71
2023/10/04 08:28:27;;;;;;;;;;;;;;;14.40;78.24;101891.31;4107068;28;20371;-72
2023/10/04 08:30:31;;;;;;;;;;;;;;;14.44;77.61;101886.41;4106395;28;20540;-72
2023/10/04 08:32:33;;;;;;;;;;;;;;;14.48;77.64;101880.44;4104411;28;20448;-72
2023/10/04 08:34:35;;;;;;;;;;;;;;;14.51;77.45;101877.34;4107499;28;20033;-72
2023/10/04 08:36:39;;;;;;;;;;;;;;;14.58;77.30;101905.53;4089298;28;20437;-72
2023/10/04 08:38:41;;;;;;;;;;;;;;;14.62;77.22;101895.19;4104910;28;20689;-72
2023/10/04 08:40:43;;;;;;;;;;;;;;;14.66;76.84;101884.81;4105745;28;20460;-73
2023/10/04 08:42:45;;;;;;;;;;;;;;;14.70;76.89;101891.56;4106237;28;20021;-73
2023/10/04 08:44:48;;;;;;;;;;;;;;;14.71;76.47;101885.97;4106500;28;20025;-72
2023/10/04 08:46:55;;;;;;;;;;;;;;;14.74;75.52;101887.50;4106352;28;20423;-72
2023/10/04 08:49:00;;;;;;;;;;;;;;;14.78;75.78;101883.41;4106730;28;20361;-72
2023/10/04 08:51:04;;;;;;;;;;;;;;;14.81;75.78;101885.78;4106071;28;20020;-72
2023/10/04 08:53:08;;;;;;;;;;;;;;;14.85;75.64;101894.41;4106896;28;20476;-72
2023/10/04 08:55:16;;;;;;;;;;;;;;;14.90;75.78;101890.13;4106607;28;20029;-72
2023/10/04 08:57:20;;;;;;;;;;;;;;;14.95;75.47;101892.31;4107201;28;20389;-73
2023/10/04 08:59:22;;;;;;;;;;;;;;;14.99;75.39;101887.38;4105852;28;20400;-73
2023/10/04 09:01:24;;;;;;;;;;;;;;;15.02;74.96;101887.03;4090436;28;20445;-73
2023/10/04 09:03:27;;;;;;;;;;;;;;;15.03;74.24;101894.13;4106696;28;20018;-72
2023/10/04 09:05:29;;;;;;;;;;;;;;;15.05;74.33;101894.84;4106755;28;20028;-72
2023/10/04 09:07:32;;;;;;;;;;;;;;;15.07;74.51;101895.50;4106360;28;19993;-71
2023/10/04 09:09:34;;;;;;;;;;;;;;;15.07;74.37;101926.25;4104474;28;20033;-72
2023/10/04 09:11:35;;;;;;;;;;;;;;;15.12;74.08;101895.78;4105888;28;20028;-70
2023/10/04 09:13:43;;;;;;;;;;;;;;;15.11;73.92;101900.41;4106631;28;20022;-72
2023/10/04 09:15:45;;;;;;;;;;;;;;;15.14;74.07;101905.50;4106422;28;20020;-72
2023/10/04 09:17:55;;;;;;;;;;;;;;;15.19;73.64;101907.66;4105292;28;19962;-71
2023/10/04 09:19:59;;;;;;;;;;;;;;;15.22;73.65;101911.88;4106209;28;20028;-72
2023/10/04 09:22:04;;;;;;;;;;;;;;;15.23;72.76;101908.16;4105773;28;20029;-74
2023/10/04 09:24:09;;;;;;;;;;;;;;;15.22;72.95;101911.88;4105292;28;20397;-73
2023/10/04 09:26:17;;;;;;;;;;;;;;;15.23;73.09;101914.44;4106429;28;20025;-71
2023/10/04 09:28:19;;;;;;;;;;;;;;;15.25;72.86;101914.25;4105104;28;20550;-72
2023/10/04 09:30:22;;;;;;;;;;;;;;;15.24;72.98;101918.84;4105667;28;20468;-72
2023/10/04 09:32:38;;;;;;;;;;;;;;;15.26;72.97;101933.13;4106099;28;20016;-72
2023/10/04 09:34:40;;;;;;;;;;;;;;;15.25;72.67;101925.13;4105643;28;20461;-72
2023/10/04 09:36:43;;;;;;;;;;;;;;;15.26;72.96;101921.41;4106042;28;20025;-73
2023/10/04 09:38:45;;;;;;;;;;;;;;;15.28;73.27;101924.78;4106202;28;19967;-73
2023/10/04 09:40:51;;;;;;;;;;;;;;;15.28;73.58;101919.34;4104854;28;20392;-72
2023/10/04 09:42:55;;;;;;;;;;;;;;;15.27;73.05;101928.56;4104946;28;20008;-72
2023/10/04 09:45:05;;;;;;;;;;;;;;;15.25;72.50;101920.56;4106008;28;20025;-72
2023/10/04 09:47:09;;;;;;;;;;;;;;;15.23;71.94;101925.31;4105281;28;20473;-72
2023/10/04 09:49:11;;;;;;;;;;;;;;;15.24;72.26;101913.41;4105869;28;20375;-71
2023/10/04 09:51:13;;;;;;;;;;;;;;;15.27;72.35;101921.22;4105185;28;20026;-72
2023/10/04 09:53:17;;;;;;;;;;;;;;;15.29;72.01;101923.75;4106015;28;20026;-72
2023/10/04 09:55:20;;;;;;;;;;;;;;;15.30;72.16;101920.88;4104674;28;19962;-73
2023/10/04 09:57:23;;;;;;;;;;;;;;;15.31;72.14;101927.16;4106189;28;20017;-73
2023/10/04 09:59:25;;;;;;;;;;;;;;;15.33;71.10;101916.94;4105858;28;19938;-72
2023/10/04 10:01:26;;;;;;;;;;;;;;;15.35;71.19;101930.38;4106565;28;20021;-72
2023/10/04 10:03:29;;;;;;;;;;;;;;;15.32;70.74;101929.69;4105910;28;20328;-73
2023/10/04 10:05:32;;;;;;;;;;;;;;;15.36;71.00;101927.47;4088481;28;19958;-73
2023/10/04 10:07:34;;;;;;;;;;;;;;;15.37;71.27;101926.44;4105416;28;20021;-72
2023/10/04 10:09:48;;;;;;;;;;;;;;;15.35;70.21;101928.50;4104224;28;20464;-73
2023/10/04 10:11:52;;;;;;;;;;;;;;;15.36;70.79;101934.78;4105586;28;20021;-73
2023/10/04 10:13:54;;;;;;;;;;;;;;;15.34;70.22;101932.22;4105469;28;20053;-72
2023/10/04 10:15:56;;;;;;;;;;;;;;;15.35;70.20;101939.38;4105006;28;20042;-72
2023/10/04 10:17:57;;;;;;;;;;;;;;;15.38;70.25;101940.91;4105884;28;20018;-72
2023/10/04 10:20:00;;;;;;;;;;;;;;;15.42;70.60;101944.94;4105492;28;20424;-72
2023/10/04 10:22:15;;;;;;;;;;;;;;;15.45;70.95;101950.91;4104372;28;20029;-72
2023/10/04 10:24:17;;;;;;;;;;;;;;;15.50;70.69;101948.47;4104849;28;19980;-71
2023/10/04 10:26:20;;;;;;;;;;;;;;;15.54;70.45;101948.13;4105278;28;20030;-72
2023/10/04 10:28:22;;;;;;;;;;;;;;;15.59;70.44;101935.63;4104651;28;20469;-71
2023/10/04 10:30:25;;;;;;;;;;;;;;;15.65;70.03;101942.25;4104957;28;20013;-72
2023/10/04 10:32:28;;;;;;;;;;;;;;;15.68;69.47;101944.59;4105040;28;20029;-71